Time;durP1;ratioP1;P1;durP2;ratioP2;P2;SDS_P1;SDS_P2;PMS_P1;PMS_P2;Temp;Humidity;BMP_temperature;BMP_pressure;BME280_temperature;BME280_humidity;BME280_pressure;Samples;Min_cycle;Max_cycle;Signal;HPM_P1;HPM_P2
2023/10/25 00:00:44;;;;;;;1.95;1.63;;;10.60;99.90;;;;;;5035276;28;20209;-68
2023/10/25 00:03:12;;;;;;;2.63;1.80;;;10.60;99.90;;;;;;5034828;28;20263;-68
2023/10/25 00:05:38;;;;;;;2.30;1.80;;;10.60;99.90;;;;;;5019460;28;20212;-68
2023/10/25 00:08:03;;;;;;;4.93;3.55;;;10.60;99.90;;;;;;5017908;28;20182;-68
2023/10/25 00:10:31;;;;;;;5.70;4.22;;;10.60;99.90;;;;;;5015318;28;20209;-66
2023/10/25 00:12:57;;;;;;;5.65;3.83;;;10.70;99.90;;;;;;5028371;28;20178;-67
2023/10/25 00:15:23;;;;;;;4.30;3.78;;;10.70;99.90;;;;;;5034907;28;20177;-68
2023/10/25 00:17:51;;;;;;;5.22;3.80;;;10.80;99.90;;;;;;5034496;28;20177;-68
2023/10/25 00:20:17;;;;;;;4.28;3.25;;;10.80;99.90;;;;;;5030319;28;20258;-67
2023/10/25 00:22:42;;;;;;;3.55;2.90;;;10.90;99.90;;;;;;5025706;28;20359;-67
2023/10/25 00:25:08;;;;;;;3.33;2.88;;;10.90;99.90;;;;;;5034579;28;20178;-68
2023/10/25 00:27:36;;;;;;;2.83;2.53;;;11.00;99.90;;;;;;5034799;28;20182;-68
2023/10/25 00:30:02;;;;;;;2.38;2.17;;;11.00;99.90;;;;;;5034754;28;20210;-69
2023/10/25 00:32:27;;;;;;;2.85;2.53;;;11.00;99.90;;;;;;5034456;28;20331;-66
2023/10/25 00:34:55;;;;;;;3.60;2.30;;;11.00;99.90;;;;;;5032790;28;20178;-67
2023/10/25 00:37:21;;;;;;;2.92;2.28;;;11.10;99.90;;;;;;5015053;28;20190;-68
2023/10/25 00:39:47;;;;;;;2.55;2.28;;;11.00;99.90;;;;;;5033446;28;20178;-69
2023/10/25 00:42:13;;;;;;;3.53;2.47;;;11.00;99.90;;;;;;5030920;28;20266;-68
2023/10/25 00:44:39;;;;;;;2.42;2.22;;;11.00;99.90;;;;;;5014860;28;20201;-69
2023/10/25 00:47:05;;;;;;;3.80;2.42;;;11.10;99.90;;;;;;5030262;28;20174;-67
2023/10/25 00:49:32;;;;;;;2.88;2.45;;;11.10;99.90;;;;;;5034361;28;20293;-67
2023/10/25 00:52:00;;;;;;;3.60;2.40;;;11.10;99.90;;;;;;5027742;28;20249;-68
2023/10/25 00:54:26;;;;;;;3.28;2.70;;;11.10;99.90;;;;;;5033203;28;20189;-68
2023/10/25 00:56:55;;;;;;;3.03;2.35;;;11.10;99.90;;;;;;5029609;28;20170;-69
2023/10/25 00:59:24;;;;;;;2.95;2.17;;;11.00;99.90;;;;;;5014995;28;20286;-69
2023/10/25 01:01:50;;;;;;;2.65;2.45;;;11.10;99.90;;;;;;5021322;28;20233;-69
2023/10/25 01:04:16;;;;;;;3.05;2.22;;;11.10;99.90;;;;;;5025860;28;20174;-68
2023/10/25 01:06:42;;;;;;;2.60;2.30;;;11.20;99.90;;;;;;5015562;28;20281;-68
2023/10/25 01:09:12;;;;;;;3.75;2.53;;;11.10;99.90;;;;;;5025507;28;20190;-68
2023/10/25 01:11:39;;;;;;;2.65;2.35;;;11.10;99.90;;;;;;5036829;28;20158;-68
2023/10/25 01:14:05;;;;;;;2.58;2.28;;;11.20;99.90;;;;;;5033975;28;20181;-68
2023/10/25 01:16:30;;;;;;;2.53;2.28;;;11.10;99.90;;;;;;5038455;28;20154;-68
2023/10/25 01:18:56;;;;;;;2.55;2.22;;;11.10;99.90;;;;;;5037662;28;20379;-67
2023/10/25 01:21:21;;;;;;;2.90;2.55;;;11.10;99.90;;;;;;5037901;28;20197;-67
2023/10/25 01:23:51;;;;;;;4.53;3.15;;;11.10;99.90;;;;;;5021074;28;20261;-68
2023/10/25 01:26:17;;;;;;;3.58;2.88;;;11.10;99.90;;;;;;5018212;28;20283;-68
2023/10/25 01:28:42;;;;;;;2.47;1.95;;;11.10;99.90;;;;;;5020579;28;20241;-69
2023/10/25 01:31:08;;;;;;;3.55;2.38;;;11.20;99.90;;;;;;5037823;28;20190;-68
2023/10/25 01:33:36;;;;;;;2.30;1.98;;;11.10;99.90;;;;;;5033186;28;20190;-68
2023/10/25 01:36:06;;;;;;;3.13;2.00;;;11.10;99.90;;;;;;5029942;28;20166;-68
2023/10/25 01:38:31;;;;;;;2.75;2.35;;;11.10;99.90;;;;;;5037400;28;20189;-67
2023/10/25 01:41:03;;;;;;;3.53;2.05;;;11.30;99.90;;;;;;5029875;28;20301;-68
2023/10/25 01:43:28;;;;;;;2.55;1.90;;;11.10;99.90;;;;;;5033469;28;20229;-68
2023/10/25 01:45:54;;;;;;;2.38;1.70;;;11.00;99.90;;;;;;5036987;28;20356;-68
2023/10/25 01:48:20;;;;;;;2.70;2.10;;;11.10;99.90;;;;;;5034808;28;20304;-68
2023/10/25 01:50:45;;;;;;;2.30;1.80;;;11.00;99.90;;;;;;5019691;28;20173;-68
2023/10/25 01:53:11;;;;;;;2.20;1.83;;;11.00;99.90;;;;;;5038431;28;20177;-67
2023/10/25 01:55:42;;;;;;;3.28;2.10;;;11.00;99.90;;;;;;5041121;28;20170;-67
2023/10/25 01:58:08;;;;;;;3.28;2.05;;;11.00;99.90;;;;;;5036284;28;20170;-68
2023/10/25 02:00:38;;;;;;;2.30;1.95;;;10.90;99.90;;;;;;5032473;28;20206;-68
2023/10/25 02:03:08;;;;;;;4.15;2.50;;;11.00;99.90;;;;;;5037107;28;20182;-68
2023/10/25 02:05:36;;;;;;;2.42;2.00;;;10.90;99.90;;;;;;5036925;28;20257;-68
2023/10/25 02:08:04;;;;;;;2.60;2.17;;;10.90;99.90;;;;;;5036408;28;20205;-68
2023/10/25 02:10:30;;;;;;;2.25;1.92;;;10.90;99.90;;;;;;5034230;28;20174;-70
2023/10/25 02:12:55;;;;;;;2.33;2.13;;;10.80;99.90;;;;;;5036327;28;20289;-67
2023/10/25 02:15:21;;;;;;;3.22;2.33;;;10.90;99.90;;;;;;5034716;28;20236;-68
2023/10/25 02:17:49;;;;;;;2.45;2.25;;;10.90;99.90;;;;;;5016967;28;20237;-68
2023/10/25 02:20:14;;;;;;;2.97;2.05;;;10.80;99.90;;;;;;5034770;28;20226;-68
2023/10/25 02:22:42;;;;;;;3.80;2.30;;;10.80;99.90;;;;;;5035875;28;20221;-68
2023/10/25 02:25:10;;;;;;;3.00;2.30;;;10.80;99.90;;;;;;5036279;28;20174;-68
2023/10/25 02:27:36;;;;;;;2.47;2.25;;;10.80;99.90;;;;;;5036090;28;20292;-68
2023/10/25 02:30:04;;;;;;;3.88;2.40;;;10.80;99.90;;;;;;5044388;28;20288;-69
2023/10/25 02:32:33;;;;;;;3.05;2.58;;;10.70;99.90;;;;;;5027279;28;20291;-69
2023/10/25 02:35:01;;;;;;;2.53;2.33;;;10.70;99.90;;;;;;5036345;28;20175;-68
2023/10/25 02:37:26;;;;;;;2.80;2.40;;;10.70;99.90;;;;;;5035718;28;20194;-67
2023/10/25 02:39:54;;;;;;;3.08;2.67;;;10.90;99.90;;;;;;5035977;28;20255;-68
2023/10/25 02:42:20;;;;;;;2.72;2.40;;;10.60;99.90;;;;;;5029438;28;20271;-67
2023/10/25 02:44:48;;;;;;;3.80;2.40;;;10.70;99.90;;;;;;5025933;28;20229;-68
2023/10/25 02:47:16;;;;;;;3.67;2.60;;;10.60;99.90;;;;;;5034786;28;20189;-67
2023/10/25 02:49:41;;;;;;;2.88;2.38;;;10.70;99.90;;;;;;5035666;28;20194;-68
2023/10/25 02:52:07;;;;;;;3.38;2.30;;;10.70;99.90;;;;;;5035806;28;20204;-68
2023/10/25 02:54:35;;;;;;;2.90;2.50;;;10.70;99.90;;;;;;5033993;28;20335;-67
2023/10/25 02:57:00;;;;;;;2.88;2.40;;;10.60;99.90;;;;;;5035767;28;20198;-68
2023/10/25 02:59:26;;;;;;;2.97;2.35;;;10.60;99.90;;;;;;5033250;28;20197;-68
2023/10/25 03:01:56;;;;;;;3.17;2.45;;;10.70;99.90;;;;;;5016534;28;20175;-68
2023/10/25 03:04:22;;;;;;;2.85;2.47;;;10.60;99.90;;;;;;5032574;28;20197;-68
2023/10/25 03:06:48;;;;;;;3.20;2.88;;;10.60;99.90;;;;;;5031562;28;20193;-68
2023/10/25 03:09:16;;;;;;;4.05;2.50;;;10.60;99.90;;;;;;5031437;28;20217;-80
2023/10/25 03:11:41;;;;;;;2.95;2.45;;;10.60;99.90;;;;;;5035681;28;20211;-78
2023/10/25 03:14:09;;;;;;;3.00;2.58;;;10.60;99.90;;;;;;5035864;28;20185;-80
2023/10/25 03:16:35;;;;;;;2.90;2.53;;;10.60;99.90;;;;;;5035228;28;20194;-80
2023/10/25 03:19:00;;;;;;;3.30;2.85;;;10.60;99.90;;;;;;5035477;28;20181;-73
2023/10/25 03:21:28;;;;;;;2.75;2.38;;;10.60;99.90;;;;;;5031120;28;20225;-80
2023/10/25 03:23:54;;;;;;;5.35;2.65;;;10.60;99.90;;;;;;5035151;28;20174;-79
2023/10/25 03:26:22;;;;;;;3.90;2.80;;;10.60;99.90;;;;;;5035616;28;20239;-79
2023/10/25 03:28:50;;;;;;;3.60;2.58;;;10.60;99.90;;;;;;5034860;28;20205;-80
2023/10/25 03:31:16;;;;;;;3.30;2.53;;;10.60;99.90;;;;;;5033452;28;20174;-75
2023/10/25 03:33:44;;;;;;;3.47;2.63;;;10.60;99.90;;;;;;5034344;28;20217;-77
2023/10/25 03:36:11;;;;;;;3.30;2.58;;;10.60;99.90;;;;;;5028868;28;20385;-79
2023/10/25 03:38:39;;;;;;;3.70;2.88;;;10.60;99.90;;;;;;5021346;28;20190;-80
2023/10/25 03:41:06;;;;;;;5.85;3.00;;;10.70;99.90;;;;;;5034404;28;20241;-80
2023/10/25 03:43:35;;;;;;;3.80;2.97;;;10.60;99.90;;;;;;5034549;28;20269;-79
2023/10/25 03:46:06;;;;;;;4.05;3.00;;;10.60;99.90;;;;;;5033995;28;20293;-73
2023/10/25 03:48:35;;;;;;;3.55;2.67;;;10.60;99.90;;;;;;5033701;28;20198;-78
2023/10/25 03:51:07;;;;;;;4.88;3.20;;;10.60;99.90;;;;;;5018997;28;20178;-70
2023/10/25 03:53:34;;;;;;;4.28;3.10;;;10.60;99.90;;;;;;5016445;28;20194;-80
2023/10/25 03:55:59;;;;;;;4.72;2.85;;;10.60;99.90;;;;;;5015468;28;20171;-80
2023/10/25 03:58:25;;;;;;;4.13;2.80;;;10.60;99.90;;;;;;5020297;28;20189;-79
2023/10/25 04:01:02;;;;;;;3.10;2.80;;;10.60;99.90;;;;;;5035188;28;20178;-81
2023/10/25 04:03:28;;;;;;;3.38;2.80;;;10.60;99.90;;;;;;5034863;28;20201;-81
2023/10/25 04:05:54;;;;;;;4.68;3.45;;;10.50;99.90;;;;;;5035205;28;20210;-81
2023/10/25 04:08:20;;;;;;;3.70;2.97;;;10.60;99.90;;;;;;5023874;28;20249;-81
2023/10/25 04:10:50;;;;;;;4.20;2.90;;;10.50;99.90;;;;;;5030295;28;20254;-81
2023/10/25 04:13:16;;;;;;;4.88;3.00;;;10.50;99.90;;;;;;5015076;28;20222;-80
2023/10/25 04:15:42;;;;;;;3.67;3.33;;;10.50;99.90;;;;;;5019542;28;20178;-82
2023/10/25 04:18:12;;;;;;;3.22;2.88;;;10.50;99.90;;;;;;5028461;28;20245;-75
2023/10/25 04:20:38;;;;;;;4.13;3.22;;;10.50;99.90;;;;;;5023150;28;20179;-80
2023/10/25 04:23:03;;;;;;;4.72;2.88;;;10.50;99.90;;;;;;5033613;28;20192;-81
2023/10/25 04:25:29;;;;;;;4.25;3.00;;;10.50;99.90;;;;;;5034253;28;20236;-78
2023/10/25 04:27:57;;;;;;;4.05;3.20;;;10.50;99.90;;;;;;5034350;28;20166;-80
2023/10/25 04:30:23;;;;;;;3.45;3.08;;;10.50;99.90;;;;;;5034086;28;20202;-81
2023/10/25 04:32:51;;;;;;;3.80;3.00;;;10.50;99.90;;;;;;5034168;28;20991;-80
2023/10/25 04:35:17;;;;;;;3.28;2.90;;;10.50;99.90;;;;;;5034542;28;20174;-77
2023/10/25 04:37:45;;;;;;;5.28;3.35;;;10.50;99.90;;;;;;5016435;28;20194;-81
2023/10/25 04:40:11;;;;;;;6.28;2.83;;;10.50;99.90;;;;;;5026404;28;20201;-75
2023/10/25 04:42:39;;;;;;;4.28;3.17;;;10.50;99.90;;;;;;5034677;28;20192;-77
2023/10/25 04:45:10;;;;;;;6.40;3.38;;;10.50;99.90;;;;;;5034679;28;20270;-75
2023/10/25 04:47:38;;;;;;;3.53;3.00;;;10.60;99.90;;;;;;5036232;28;20240;-75
2023/10/25 04:50:06;;;;;;;3.85;3.28;;;10.60;99.90;;;;;;5038530;28;20337;-76
2023/10/25 04:52:32;;;;;;;5.47;3.17;;;10.60;99.90;;;;;;5038627;28;20228;-77
2023/10/25 04:55:00;;;;;;;4.22;3.03;;;10.60;99.90;;;;;;5022734;28;20202;-75
2023/10/25 04:57:26;;;;;;;4.22;3.47;;;10.70;99.90;;;;;;5027816;28;20210;-76
2023/10/25 04:59:53;;;;;;;3.80;3.13;;;10.70;99.90;;;;;;5046827;28;20169;-80
2023/10/25 05:02:19;;;;;;;3.67;2.75;;;10.70;99.90;;;;;;5041039;28;20228;-77
2023/10/25 05:04:45;;;;;;;2.83;2.53;;;10.70;99.90;;;;;;5057699;28;20196;-77
2023/10/25 05:07:11;;;;;;;3.63;3.05;;;10.70;99.90;;;;;;5018191;28;20205;-79
2023/10/25 05:09:37;;;;;;;6.40;3.53;;;10.70;99.90;;;;;;5017715;28;20229;-78
2023/10/25 05:12:10;;;;;;;6.68;3.28;;;10.70;99.90;;;;;;5020904;28;20201;-81
2023/10/25 05:14:39;;;;;;;4.43;3.00;;;10.70;99.90;;;;;;5037607;28;20232;-82
2023/10/25 05:17:09;;;;;;;2.65;2.45;;;10.70;99.90;;;;;;5037875;28;20181;-81
2023/10/25 05:19:35;;;;;;;3.25;2.80;;;10.70;99.90;;;;;;5037716;28;20173;-80
2023/10/25 05:22:10;;;;;;;2.92;2.40;;;10.70;99.90;;;;;;5031445;28;20177;-75
2023/10/25 05:24:36;;;;;;;2.58;2.28;;;10.70;99.90;;;;;;5033285;28;20183;-78
2023/10/25 05:27:04;;;;;;;3.53;2.67;;;10.70;99.90;;;;;;5037171;28;20170;-80
2023/10/25 05:29:30;;;;;;;3.40;2.50;;;10.70;99.90;;;;;;5037234;28;20197;-75
2023/10/25 05:31:59;;;;;;;3.33;2.65;;;10.70;99.90;;;;;;5037016;28;20213;-81
2023/10/25 05:34:25;;;;;;;3.63;2.30;;;10.70;99.90;;;;;;5026465;28;20193;-81
2023/10/25 05:36:51;;;;;;;4.10;2.80;;;10.60;99.90;;;;;;5017519;28;20265;-80
2023/10/25 05:39:19;;;;;;;3.42;2.58;;;10.60;99.90;;;;;;5025370;28;20267;-78
2023/10/25 05:41:48;;;;;;;3.28;2.33;;;10.60;99.90;;;;;;5033839;28;20206;-80
2023/10/25 05:44:15;;;;;;;3.42;2.53;;;10.60;99.90;;;;;;5037005;28;20582;-79
2023/10/25 05:46:41;;;;;;;3.33;2.20;;;10.60;99.90;;;;;;5036586;28;20185;-80
2023/10/25 05:49:09;;;;;;;6.03;4.50;;;10.60;99.90;;;;;;5036728;28;20277;-79
2023/10/25 05:51:35;;;;;;;3.83;3.00;;;10.50;99.90;;;;;;5036854;28;20174;-79
2023/10/25 05:54:01;;;;;;;3.72;2.90;;;10.60;99.90;;;;;;5032857;28;20178;-80
2023/10/25 05:56:28;;;;;;;2.97;2.45;;;10.50;99.90;;;;;;5032963;28;20202;-78
2023/10/25 05:58:57;;;;;;;2.85;2.05;;;10.50;99.90;;;;;;5036419;28;20184;-75
2023/10/25 06:01:36;;;;;;;4.45;2.03;;;10.60;99.90;;;;;;5036230;28;20205;-80
2023/10/25 06:04:08;;;;;;;3.50;1.77;;;10.50;99.90;;;;;;5036524;28;20200;-82
2023/10/25 06:06:35;;;;;;;2.72;2.13;;;10.60;99.90;;;;;;5030900;28;20210;-80
2023/10/25 06:09:01;;;;;;;2.55;1.70;;;10.60;99.90;;;;;;5026335;28;20206;-75
2023/10/25 06:11:27;;;;;;;4.03;2.00;;;10.60;99.90;;;;;;5035928;28;20220;-76
2023/10/25 06:13:53;;;;;;;2.13;1.77;;;10.60;99.90;;;;;;5036124;28;20280;-73
2023/10/25 06:16:26;;;;;;;3.55;1.83;;;10.60;99.90;;;;;;5035916;28;20267;-79
2023/10/25 06:18:52;;;;;;;2.88;1.67;;;10.60;99.90;;;;;;5033257;28;20198;-80
2023/10/25 06:21:17;;;;;;;4.50;2.10;;;10.60;99.90;;;;;;5036377;28;20201;-76
2023/10/25 06:23:43;;;;;;;2.70;1.83;;;10.70;99.90;;;;;;5036507;28;20181;-80
2023/10/25 06:26:11;;;;;;;2.80;1.92;;;10.70;99.90;;;;;;5036105;28;20210;-82
2023/10/25 06:28:36;;;;;;;2.58;1.92;;;10.70;99.90;;;;;;5036173;28;20225;-78
2023/10/25 06:31:02;;;;;;;4.75;1.88;;;10.70;99.90;;;;;;5050074;28;20207;-79
2023/10/25 06:33:28;;;;;;;2.97;1.70;;;10.80;99.90;;;;;;5056267;28;20166;-80
2023/10/25 06:36:01;;;;;;;2.22;1.80;;;10.80;99.90;;;;;;5048195;28;20273;-78
2023/10/25 06:38:27;;;;;;;2.90;1.60;;;10.90;99.90;;;;;;5036270;28;20209;-79
2023/10/25 06:40:53;;;;;;;2.47;1.60;;;10.90;99.90;;;;;;5035880;28;20201;-81
2023/10/25 06:43:21;;;;;;;2.45;1.63;;;10.90;99.90;;;;;;5035755;28;20190;-79
2023/10/25 06:45:50;;;;;;;2.10;1.50;;;11.00;99.90;;;;;;5035477;28;20185;-82
2023/10/25 06:48:15;;;;;;;2.47;1.77;;;11.00;99.90;;;;;;5036116;28;20174;-82
2023/10/25 06:50:47;;;;;;;2.65;1.80;;;11.10;99.90;;;;;;5035802;28;20184;-80
2023/10/25 06:53:18;;;;;;;3.38;1.55;;;11.10;99.90;;;;;;5036396;28;20158;-78
2023/10/25 06:55:46;;;;;;;3.00;1.80;;;11.20;99.90;;;;;;5035410;28;20213;-81
2023/10/25 06:58:12;;;;;;;1.85;1.40;;;11.20;99.90;;;;;;5035306;28;20174;-80
2023/10/25 07:00:39;;;;;;;2.10;1.60;;;11.20;99.90;;;;;;5038317;28;20265;-77
2023/10/25 07:03:08;;;;;;;2.55;1.50;;;11.30;99.90;;;;;;5055647;28;20216;-82
2023/10/25 07:05:35;;;;;;;2.67;1.45;;;11.30;99.90;;;;;;5029425;28;20194;-79
2023/10/25 07:08:01;;;;;;;2.17;1.67;;;11.40;99.90;;;;;;5029773;28;20182;-79
2023/10/25 07:10:30;;;;;;;4.25;3.03;;;11.40;99.90;;;;;;5035039;28;20205;-80
2023/10/25 07:12:56;;;;;;;2.67;1.73;;;11.40;99.90;;;;;;5035116;28;20194;-80
2023/10/25 07:15:24;;;;;;;2.92;1.60;;;11.50;99.90;;;;;;5036385;28;20195;-80
2023/10/25 07:17:52;;;;;;;3.00;1.70;;;11.50;99.90;;;;;;5034797;28;20212;-79
2023/10/25 07:20:21;;;;;;;3.70;1.80;;;11.60;99.90;;;;;;5035441;28;20212;-79
2023/10/25 07:22:46;;;;;;;4.22;1.98;;;11.60;99.90;;;;;;5024577;28;20205;-74
2023/10/25 07:25:14;;;;;;;4.03;1.77;;;11.70;99.90;;;;;;5015630;28;20194;-80
2023/10/25 07:27:42;;;;;;;3.50;1.85;;;11.70;99.90;;;;;;5034380;28;20244;-76
2023/10/25 07:30:08;;;;;;;2.60;1.80;;;11.80;99.90;;;;;;5034384;28;20206;-80
2023/10/25 07:32:36;;;;;;;3.72;1.80;;;11.80;99.90;;;;;;5034969;28;20178;-81
2023/10/25 07:35:02;;;;;;;2.72;1.70;;;11.90;99.90;;;;;;5027823;28;20186;-79
2023/10/25 07:37:28;;;;;;;2.38;1.58;;;11.90;99.90;;;;;;5018638;28;20187;-80
2023/10/25 07:39:56;;;;;;;3.63;2.05;;;12.00;99.90;;;;;;5020293;28;20259;-80
2023/10/25 07:42:22;;;;;;;5.20;2.13;;;11.90;99.90;;;;;;5034955;28;20225;-76
2023/10/25 07:44:47;;;;;;;4.47;2.38;;;12.00;99.90;;;;;;5031240;28;20209;-81
2023/10/25 07:47:14;;;;;;;2.13;1.73;;;12.00;99.90;;;;;;5019058;28;20170;-77
2023/10/25 07:49:45;;;;;;;4.97;1.90;;;12.00;99.90;;;;;;5034784;28;20212;-79
2023/10/25 07:52:11;;;;;;;4.28;2.00;;;12.00;99.90;;;;;;5031448;28;20171;-78
2023/10/25 07:54:39;;;;;;;4.90;2.13;;;12.10;99.90;;;;;;5015578;28;20175;-80
2023/10/25 07:57:09;;;;;;;2.35;1.80;;;12.10;99.90;;;;;;5034485;28;20186;-78
2023/10/25 07:59:37;;;;;;;3.20;1.70;;;12.10;99.90;;;;;;5034578;28;20206;-79
2023/10/25 08:02:03;;;;;;;2.33;1.52;;;12.10;99.90;;;;;;5034066;28;20186;-79
2023/10/25 08:04:29;;;;;;;2.45;1.80;;;12.10;99.90;;;;;;5034837;28;20236;-79
2023/10/25 08:06:57;;;;;;;2.75;1.73;;;12.20;99.90;;;;;;5034229;28;20254;-78
2023/10/25 08:09:24;;;;;;;2.78;1.90;;;12.20;99.90;;;;;;5034466;28;20276;-78
2023/10/25 08:11:52;;;;;;;4.18;2.10;;;12.20;99.90;;;;;;5034256;28;20221;-79
2023/10/25 08:14:21;;;;;;;4.07;2.10;;;12.30;99.90;;;;;;5021995;28;20178;-80
2023/10/25 08:16:49;;;;;;;3.35;2.00;;;12.30;99.90;;;;;;5014603;28;20206;-81
2023/10/25 08:19:15;;;;;;;2.67;1.98;;;12.40;99.90;;;;;;5027710;28;20356;-80
2023/10/25 08:21:41;;;;;;;4.57;2.10;;;12.40;99.90;;;;;;5034614;28;20316;-82
2023/10/25 08:24:11;;;;;;;3.78;2.20;;;12.50;99.90;;;;;;5034162;28;20224;-75
2023/10/25 08:26:39;;;;;;;3.10;2.30;;;12.50;99.90;;;;;;5034672;28;20170;-79
2023/10/25 08:29:08;;;;;;;3.22;1.95;;;12.50;99.90;;;;;;5034151;28;20214;-77
2023/10/25 08:31:36;;;;;;;3.45;2.22;;;12.50;99.90;;;;;;5034523;28;20184;-81
2023/10/25 08:34:05;;;;;;;3.00;2.08;;;12.60;99.90;;;;;;5033968;28;20185;-77
2023/10/25 08:36:31;;;;;;;4.03;2.55;;;12.60;99.90;;;;;;5014760;28;20171;-79
2023/10/25 08:39:00;;;;;;;3.65;2.25;;;12.60;99.90;;;;;;5054122;28;20173;-80
2023/10/25 08:41:29;;;;;;;3.72;2.60;;;12.60;99.90;;;;;;5054461;28;20284;-78
2023/10/25 08:43:56;;;;;;;3.15;2.40;;;12.60;99.90;;;;;;5054362;28;20169;-80
2023/10/25 08:46:23;;;;;;;3.92;2.35;;;12.60;99.90;;;;;;5040203;28;20260;-80
2023/10/25 08:48:55;;;;;;;3.22;2.20;;;12.60;99.90;;;;;;5018691;28;20207;-79
2023/10/25 08:51:24;;;;;;;3.80;2.30;;;12.60;99.90;;;;;;5014453;28;20178;-77
2023/10/25 08:53:52;;;;;;;3.65;2.08;;;12.60;99.90;;;;;;5014459;28;20205;-80
2023/10/25 08:56:18;;;;;;;3.67;2.40;;;12.60;99.90;;;;;;5014830;28;20241;-79
2023/10/25 08:58:44;;;;;;;2.47;2.13;;;12.60;99.90;;;;;;5014122;28;20194;-80
2023/10/25 09:01:11;;;;;;;2.58;2.10;;;12.60;99.90;;;;;;5014504;28;20262;-80
2023/10/25 09:03:39;;;;;;;3.10;2.13;;;12.70;99.90;;;;;;5014289;28;20399;-80
2023/10/25 09:06:06;;;;;;;3.78;2.10;;;12.70;99.90;;;;;;5014554;28;20155;-81
2023/10/25 09:08:33;;;;;;;3.22;2.00;;;12.70;99.90;;;;;;5014485;28;20182;-81
2023/10/25 09:11:04;;;;;;;2.88;2.20;;;12.80;99.90;;;;;;5014297;28;20226;-81
2023/10/25 09:13:34;;;;;;;3.30;2.22;;;12.80;99.90;;;;;;5021833;28;20242;-76
2023/10/25 09:16:05;;;;;;;2.40;2.20;;;12.80;99.90;;;;;;5034063;28;20247;-78
2023/10/25 09:18:32;;;;;;;2.95;2.10;;;12.80;99.90;;;;;;5034122;28;20188;-80
2023/10/25 09:20:59;;;;;;;2.72;2.00;;;12.90;99.90;;;;;;5034009;28;20198;-81
2023/10/25 09:23:24;;;;;;;3.50;2.17;;;12.90;99.90;;;;;;5034174;28;20174;-80
2023/10/25 09:25:50;;;;;;;3.30;1.98;;;12.90;99.90;;;;;;5033877;28;20228;-80
2023/10/25 09:28:27;;;;;;;3.38;2.30;;;12.90;99.90;;;;;;5033938;28;20216;-80
2023/10/25 09:31:01;;;;;;;4.07;2.03;;;13.00;99.90;;;;;;5033972;28;20173;-80
2023/10/25 09:33:30;;;;;;;3.58;2.25;;;13.00;99.90;;;;;;5037311;28;20280;-81
2023/10/25 09:35:57;;;;;;;3.08;2.00;;;13.00;99.90;;;;;;5037155;28;20241;-77
2023/10/25 09:38:25;;;;;;;2.17;1.58;;;13.00;99.90;;;;;;5037064;28;20189;-81
2023/10/25 09:40:56;;;;;;;3.13;1.60;;;13.00;99.90;;;;;;5037221;28;20170;-77
2023/10/25 09:43:24;;;;;;;1.70;1.30;;;13.10;99.90;;;;;;5037098;28;20185;-79
2023/10/25 09:45:56;;;;;;;2.33;1.58;;;13.00;99.90;;;;;;5036688;28;20248;-79
2023/10/25 09:48:22;;;;;;;1.38;1.20;;;13.10;99.90;;;;;;5036982;28;20166;-82
2023/10/25 09:51:08;;;;;;;1.98;1.30;;;13.10;99.90;;;;;;5036441;28;20291;-77
2023/10/25 09:54:13;;;;;;;1.40;1.30;;;13.10;99.90;;;;;;5036942;28;20173;-77
2023/10/25 09:56:41;;;;;;;3.95;1.70;;;13.10;99.90;;;;;;5005084;28;20179;-79
2023/10/25 09:59:10;;;;;;;3.88;1.77;;;13.00;99.90;;;;;;5025630;28;20181;-81
2023/10/25 10:01:40;;;;;;;2.40;1.58;;;13.00;99.90;;;;;;5036765;28;20280;-84
2023/10/25 10:04:35;;;;;;;1.95;1.60;;;13.00;99.90;;;;;;5036566;28;20293;-80
2023/10/25 10:07:24;;;;;;;2.42;1.73;;;12.90;99.90;;;;;;4992132;28;20197;-73
2023/10/25 10:09:54;;;;;;;2.50;1.67;;;12.80;99.90;;;;;;5016838;28;20218;-78
2023/10/25 10:12:20;;;;;;;2.17;1.70;;;12.70;99.90;;;;;;5031370;28;20182;-78
2023/10/25 10:14:45;;;;;;;2.00;1.80;;;12.60;99.90;;;;;;5036558;28;20245;-77
2023/10/25 10:17:14;;;;;;;2.08;1.70;;;12.50;99.90;;;;;;5036452;28;20228;-76
2023/10/25 10:19:46;;;;;;;2.88;1.95;;;12.50;99.90;;;;;;5036518;28;20180;-79
2023/10/25 10:22:13;;;;;;;4.07;1.92;;;12.40;99.90;;;;;;5036064;28;20210;-79
2023/10/25 10:24:41;;;;;;;3.08;1.98;;;12.30;99.90;;;;;;5036207;28;20174;-76
2023/10/25 10:27:10;;;;;;;2.70;1.88;;;12.30;99.90;;;;;;5047693;28;20201;-77
2023/10/25 10:29:37;;;;;;;2.85;2.10;;;12.30;99.90;;;;;;5056037;28;20204;-77
2023/10/25 10:32:05;;;;;;;3.03;2.08;;;12.30;99.90;;;;;;5056049;28;20192;-76
2023/10/25 10:34:52;;;;;;;2.40;1.90;;;12.30;99.90;;;;;;5056130;28;20385;-71
2023/10/25 10:37:26;;;;;;;2.72;2.10;;;12.20;99.90;;;;;;5050717;28;20183;-80
2023/10/25 10:39:59;;;;;;;2.38;2.05;;;12.20;99.90;;;;;;5055926;28;20421;-77
2023/10/25 10:42:28;;;;;;;2.75;2.25;;;12.20;99.90;;;;;;5042002;28;20182;-79
2023/10/25 10:45:01;;;;;;;2.72;2.10;;;12.20;99.90;;;;;;5036079;28;20281;-77
2023/10/25 10:47:42;;;;;;;2.80;2.20;;;12.20;99.90;;;;;;5036076;28;20197;-78
2023/10/25 10:50:24;;;;;;;2.50;2.15;;;12.20;99.90;;;;;;5017208;28;20206;-73
2023/10/25 10:52:51;;;;;;;2.97;2.30;;;12.20;99.90;;;;;;5035713;28;20174;-75
2023/10/25 10:55:21;;;;;;;3.03;2.17;;;12.20;99.90;;;;;;5039352;28;20180;-77
2023/10/25 10:57:50;;;;;;;2.80;2.00;;;12.30;99.90;;;;;;5037014;28;20181;-75
2023/10/25 11:00:19;;;;;;;2.67;2.25;;;12.30;99.90;;;;;;5031610;28;20179;-78
2023/10/25 11:02:50;;;;;;;3.90;2.60;;;12.30;99.90;;;;;;5018303;28;20210;-76
2023/10/25 11:05:19;;;;;;;2.67;2.47;;;12.30;99.90;;;;;;5043538;28;20182;-77
2023/10/25 11:07:51;;;;;;;2.90;2.58;;;12.30;99.90;;;;;;5035398;28;20206;-79
2023/10/25 11:10:19;;;;;;;3.03;2.58;;;12.30;99.90;;;;;;5045090;28;20259;-77
2023/10/25 11:12:45;;;;;;;3.00;2.70;;;12.30;99.90;;;;;;5015696;28;20174;-74
2023/10/25 11:15:12;;;;;;;3.55;3.25;;;12.30;99.90;;;;;;5015613;28;20171;-76
2023/10/25 11:17:40;;;;;;;3.25;2.75;;;12.30;99.90;;;;;;5015409;28;20254;-76
2023/10/25 11:20:09;;;;;;;3.67;3.00;;;12.30;99.90;;;;;;5028774;28;20231;-75
2023/10/25 11:22:36;;;;;;;4.10;2.95;;;12.30;99.90;;;;;;5035156;28;20612;-78
2023/10/25 11:25:10;;;;;;;4.05;2.90;;;12.30;99.90;;;;;;5034801;28;20182;-77
2023/10/25 11:27:36;;;;;;;3.30;2.88;;;12.30;99.90;;;;;;5035220;28;20193;-73
2023/10/25 11:30:05;;;;;;;2.97;2.63;;;12.30;99.90;;;;;;5036459;28;20209;-74
2023/10/25 11:32:32;;;;;;;2.78;2.38;;;12.30;99.90;;;;;;5041923;28;20174;-76
2023/10/25 11:34:59;;;;;;;3.35;2.90;;;12.30;99.90;;;;;;5015162;28;20175;-76
2023/10/25 11:37:27;;;;;;;3.08;2.67;;;12.30;99.90;;;;;;5014933;28;20186;-75
2023/10/25 11:40:01;;;;;;;4.47;2.80;;;12.30;99.90;;;;;;5015404;28;20240;-75
2023/10/25 11:42:30;;;;;;;3.53;2.72;;;12.30;99.90;;;;;;5030061;28;20181;-77
2023/10/25 11:44:58;;;;;;;2.95;2.40;;;12.30;99.90;;;;;;5024957;28;20219;-78
2023/10/25 11:47:24;;;;;;;3.53;3.15;;;12.30;99.90;;;;;;5015598;28;20178;-77
2023/10/25 11:49:58;;;;;;;3.53;2.90;;;12.40;99.90;;;;;;5027319;28;20220;-75
2023/10/25 11:52:28;;;;;;;3.72;2.90;;;12.30;99.90;;;;;;5034552;28;20173;-78
2023/10/25 11:54:55;;;;;;;3.25;2.75;;;12.30;99.90;;;;;;5034021;28;20198;-74
2023/10/25 11:57:29;;;;;;;3.00;2.75;;;12.30;99.90;;;;;;5034448;28;20170;-77
2023/10/25 11:59:57;;;;;;;3.42;2.55;;;12.30;99.90;;;;;;5023061;28;20182;-77
2023/10/25 12:02:24;;;;;;;3.38;2.78;;;12.30;99.90;;;;;;5033568;28;20182;-79
2023/10/25 12:04:51;;;;;;;3.55;2.95;;;12.30;99.90;;;;;;5034653;28;20174;-76
2023/10/25 12:07:17;;;;;;;2.90;2.60;;;12.40;99.90;;;;;;5034712;28;20202;-76
2023/10/25 12:09:45;;;;;;;3.20;2.45;;;12.40;99.90;;;;;;5018988;28;20199;-74
2023/10/25 12:12:11;;;;;;;3.35;3.05;;;12.50;99.90;;;;;;5014646;28;20170;-76
2023/10/25 12:14:37;;;;;;;4.15;2.92;;;12.50;99.90;;;;;;5026481;28;20178;-77
2023/10/25 12:17:07;;;;;;;3.63;2.90;;;12.50;99.90;;;;;;5034555;28;20216;-77
2023/10/25 12:19:39;;;;;;;3.10;2.80;;;12.50;99.90;;;;;;5017896;28;20299;-78
2023/10/25 12:22:07;;;;;;;3.28;2.50;;;12.50;99.90;;;;;;5034241;28;20220;-72
2023/10/25 12:24:34;;;;;;;3.65;2.78;;;12.60;99.90;;;;;;5034534;28;20197;-78
2023/10/25 12:27:06;;;;;;;2.58;2.30;;;12.60;99.90;;;;;;5034383;28;20189;-76
2023/10/25 12:29:32;;;;;;;2.75;2.42;;;12.60;99.90;;;;;;5031092;28;20202;-77
2023/10/25 12:32:03;;;;;;;3.72;2.78;;;12.60;99.90;;;;;;5034718;28;20260;-77
2023/10/25 12:34:31;;;;;;;2.80;2.42;;;12.60;99.90;;;;;;5034093;28;20170;-79
2023/10/25 12:36:56;;;;;;;4.10;2.40;;;12.70;99.90;;;;;;5030358;28;20214;-78
2023/10/25 12:39:24;;;;;;;3.00;2.40;;;12.70;99.90;;;;;;5014633;28;20202;-76
2023/10/25 12:41:50;;;;;;;3.00;2.38;;;12.70;99.90;;;;;;5015559;28;20178;-75
2023/10/25 12:44:18;;;;;;;3.58;2.67;;;12.60;99.90;;;;;;5014861;28;20178;-78
2023/10/25 12:46:44;;;;;;;2.63;2.40;;;12.70;99.90;;;;;;5021759;28;20174;-80
2023/10/25 12:49:18;;;;;;;2.75;2.10;;;12.70;99.90;;;;;;5034162;28;20247;-78
2023/10/25 12:51:44;;;;;;;3.13;2.03;;;12.70;99.90;;;;;;5019972;28;20170;-78